»·PEaware :: TPX862 KSNA-KLAS

TPX862 :: KSNA-KLAS

FLIGHT INFORMATION

Flight Status: Arrived
Operator: ATP Experience
More flights by this operator :: More flights under this callsign
Pilot: Ben F. (2808)
Aircraft: BOEING 737-800
(B738)
More flights by this aircraft type
Origin: KSNA John Wayne-Orange Co
United States
Destination: KLAS McCarran Intl
United States
More flights between these airports :: More routes between these airports
Route: FINZZ2 MISEN KEPEC6
File this flight plan on PilotEdge
Remarks:
Altitude:
(Current/Filed)
29,000ft
Speed:
(Current/Filed)
446kts
Departed: 14-Dec-19 09:07 AM
Arrived: 14-Dec-19 09:52 AM
Distance/Time
Traveled:
197nm/0:45
Distance/Time
To Go:
Arrived

Flight Plot

Page will automatically refresh every two minutes.

Flight plan parsing failed; only flown route is shown


Map Options




Map Legend


Flown Route
Filed Route
Departure Airport
Arrival Airport
Navaid (VOR, NDB)
Fix

Horizontal Profiles

Position Reports

Time Latitude Longitude Heading Altitude Ground
Speed
14-Dec-19 08:41 33.674987 -117.865073 118 64ft 0kts
14-Dec-19 08:41 33.674987 -117.865073 118 64ft 0kts
14-Dec-19 08:43 33.674987 -117.865073 118 64ft 0kts
14-Dec-19 08:44 33.674987 -117.865073 118 64ft 0kts
14-Dec-19 08:44 33.674987 -117.865073 118 64ft 0kts
14-Dec-19 08:45 33.674987 -117.865073 118 64ft 0kts
14-Dec-19 08:47 33.674987 -117.865073 118 64ft 0kts
14-Dec-19 08:47 33.674987 -117.865073 118 64ft 0kts
14-Dec-19 08:48 33.674987 -117.865073 118 64ft 0kts
14-Dec-19 08:49 33.674987 -117.865073 118 64ft 0kts
14-Dec-19 08:50 33.674987 -117.865073 118 64ft 0kts
14-Dec-19 08:51 33.674987 -117.865073 118 64ft 0kts
14-Dec-19 08:52 33.674987 -117.865073 118 64ft 0kts
14-Dec-19 08:53 33.674987 -117.865073 118 64ft 0kts
14-Dec-19 08:54 33.674987 -117.865073 118 64ft 0kts
14-Dec-19 08:55 33.674987 -117.865073 118 64ft 0kts
14-Dec-19 08:56 33.674987 -117.865073 118 64ft 0kts
14-Dec-19 08:57 33.674987 -117.865073 118 64ft 0kts
14-Dec-19 08:58 33.675095 -117.865340 108 64ft 2kts
14-Dec-19 08:59 33.675032 -117.865917 30 64ft 0kts
14-Dec-19 09:00 33.675032 -117.865917 30 64ft 0kts
14-Dec-19 09:01 33.675033 -117.865916 30 64ft 0kts
14-Dec-19 09:02 33.675665 -117.865497 27 64ft 10kts
14-Dec-19 09:03 33.679583 -117.863027 27 64ft 16kts
14-Dec-19 09:04 33.681154 -117.864291 297 64ft 0kts
14-Dec-19 09:05 33.681216 -117.865384 207 64ft 1kts
14-Dec-19 09:06 33.650370 -117.884986 206 1706ft 173kts
14-Dec-19 09:07 33.597746 -117.895447 186 4252ft 219kts
14-Dec-19 09:08 33.537583 -117.936308 227 6851ft 270kts
14-Dec-19 09:09 33.498366 -118.009980 278 8000ft 268kts
14-Dec-19 09:10 33.541148 -118.079965 311 10470ft 263kts
14-Dec-19 09:11 33.607701 -118.128746 355 12967ft 336kts
14-Dec-19 09:12 33.696088 -118.068860 24 15668ft 384kts
14-Dec-19 09:13 33.793107 -118.010929 16 18181ft 398kts
14-Dec-19 09:14 33.894552 -117.951347 19 20631ft 415kts
14-Dec-19 09:15 33.993700 -117.863446 29 21863ft 464kts
14-Dec-19 09:16 34.096918 -117.765272 38 23670ft 486kts
14-Dec-19 09:17 34.184615 -117.636869 46 25299ft 504kts
14-Dec-19 09:18 34.273853 -117.503468 46 26712ft 516kts
14-Dec-19 09:19 34.365246 -117.367281 46 28168ft 523kts
14-Dec-19 09:20 34.456864 -117.229726 46 29088ft 526kts
14-Dec-19 09:21 34.548194 -117.091929 46 29090ft 523kts
14-Dec-19 09:22 34.641308 -116.956400 45 29058ft 522kts
14-Dec-19 09:23 34.734184 -116.821299 45 29013ft 522kts
14-Dec-19 09:24 34.825356 -116.687153 44 28983ft 509kts
14-Dec-19 09:25 34.925965 -116.574576 29 27283ft 480kts
14-Dec-19 09:26 35.029534 -116.474818 30 25349ft 468kts
14-Dec-19 09:27 35.128296 -116.373865 36 23570ft 461kts
14-Dec-19 09:28 35.216744 -116.260876 38 21781ft 453kts
14-Dec-19 09:29 35.303194 -116.151591 38 20118ft 445kts
14-Dec-19 09:30 35.388342 -116.044513 37 18479ft 431kts
14-Dec-19 09:31 35.470938 -115.940562 38 16944ft 418kts
14-Dec-19 09:32 35.550291 -115.839898 39 15427ft 404kts
14-Dec-19 09:33 35.626366 -115.742721 40 13961ft 383kts
14-Dec-19 09:34 35.696859 -115.652776 40 13025ft 340kts
14-Dec-19 09:35 35.764550 -115.581561 9 13016ft 310kts
14-Dec-19 09:36 35.848494 -115.570422 355 13020ft 301kts
14-Dec-19 09:37 35.932039 -115.565752 355 13020ft 301kts
14-Dec-19 09:38 35.997621 -115.502391 72 12336ft 344kts
14-Dec-19 09:39 36.024462 -115.393727 71 11203ft 320kts
14-Dec-19 09:40 36.025015 -115.287432 96 9999ft 305kts
14-Dec-19 09:41 36.017399 -115.186083 95 9029ft 282kts
14-Dec-19 09:42 36.011412 -115.097379 96 8543ft 247kts
14-Dec-19 09:43 36.006412 -115.013546 95 7836ft 246kts
14-Dec-19 09:44 36.001395 -114.930455 96 6607ft 230kts
14-Dec-19 09:45 36.022382 -114.870139 9 5266ft 209kts
14-Dec-19 09:46 36.071484 -114.884183 287 4783ft 186kts
14-Dec-19 09:47 36.073855 -114.948298 268 4885ft 184kts
14-Dec-19 09:48 36.073772 -115.009133 268 4033ft 170kts
14-Dec-19 09:49 36.073768 -115.064858 269 3150ft 155kts
14-Dec-19 09:50 36.073735 -115.117983 270 2346ft 157kts
14-Dec-19 09:51 36.074234 -115.149406 296 2189ft 23kts
14-Dec-19 09:52 36.076902 -115.152252 335 2189ft 13kts
14-Dec-19 09:53 36.078661 -115.149242 94 2189ft 19kts
14-Dec-19 09:54 36.078271 -115.142617 90 2189ft 19kts
14-Dec-19 09:55 36.079270 -115.139059 42 2189ft 3kts
14-Dec-19 09:56 36.080206 -115.139352 313 2189ft 0kts
14-Dec-19 09:57 36.080206 -115.139352 313 2189ft 0kts
14-Dec-19 09:58 36.080206 -115.139352 313 2189ft 0kts
14-Dec-19 09:59 36.080206 -115.139352 313 2189ft 0kts
14-Dec-19 10:00 36.080206 -115.139352 313 2189ft 0kts
14-Dec-19 10:01 36.080206 -115.139352 313 2189ft 0kts

Navigation Log

Ident Type
Flight plan parsing failed, navigation log unavailable